EPKK Airport Information

Runway Information
Runway 07 Length 8366 ft width 196 ft
Elevation 792 ft Threshold ft Heading 78
Runway 25 Length 8366 ft Width 196 ft
Elevation 779 ft Threshold 784 ft Heading 258
Airport Frequencies
Type APP Name KRAKOW APP Frequency 121.075 MHZ
Type ATIS Name ATIS Frequency 126.125 MHZ
Type DIR Name KRAKOW DIR Frequency 123.8 MHZ
Type TWR Name KRAKOW TWR Frequency 123.25 MHZ
Type TWR Name KRAKOW DEL Frequency 118.1 MHZ
Airport Navaids
Type NDB Name Krakow Frequency 353 KHZ
Airport Weather Information & NOTAM
ADDS - METARS form results

(1126 UTC 05 February 2023)
Data provider http://aviationweather.gov/metar/data/
 
METAR text: EPKK 051100Z 34009KT 9999 -SN FEW015 BKN022 M04/M09 Q1036
Conditions at: EPKK (KRAKOW/BALICE , PL) observed 1100 UTC 05 February 2023
Temperature: -4.0°C (25°F)
Dewpoint: -9.0°C (16°F) [RH = 68%]
Pressure (altimeter): 30.59 inches Hg (1036.0 mb)
Winds: from the NNW (340 degrees) at 10 MPH (9 knots; 4.6 m/s)
Visibility: 6 or more miles (10+ km)
Ceiling: 2200 feet AGL
Clouds: few clouds at 1500 feet AGL
broken clouds at 2200 feet AGL
Weather: -SN  (light snow)

METAR text: EPKK 051030Z 35007KT 320V030 9999 -SN FEW011 OVC021 M04/M09 Q1036
Conditions at: EPKK (KRAKOW/BALICE , PL) observed 1030 UTC 05 February 2023
Temperature: -4.0°C (25°F)
Dewpoint: -9.0°C (16°F) [RH = 68%]
Pressure (altimeter): 30.59 inches Hg (1036.0 mb)
Winds: from the N (350 degrees) at 8 MPH (7 knots; 3.6 m/s)
Visibility: 6 or more miles (10+ km)
Ceiling: 2100 feet AGL
Clouds: few clouds at 1100 feet AGL
overcast cloud deck at 2100 feet AGL
Weather: -SN  (light snow)

Forecast for: EPKK (KRAKOW/BALICE , PL)
Text: TAF EPKK 050830Z 0509/0609 24006KT 9999 BKN023
Forecast period: 0900 UTC 05 February 2023 to 0900 UTC 06 February 2023
Forecast type: FROM: standard forecast or significant change
Winds: from the WSW (240 degrees) at 7 MPH (6 knots; 3.1 m/s)
Visibility: 6 or more miles (10+ km)
Ceiling: 2300 feet AGL
Clouds: broken clouds at 2300 feet AGL
Weather: no significant weather forecast for this period
Text: TEMPO 0509/0515 4000 -SN BKN013
Forecast period: 0900 to 1500 UTC 05 February 2023
Forecast type: TEMPORARY: The following changes expected for less than half the time period
Visibility: 2.49 miles (4.01 km)
Ceiling: 1300 feet AGL
Clouds: broken clouds at 1300 feet AGL
Weather: -SN  (light snow)